sensor_id;sensor_type;location;lat;lon;timestamp;temperature;humidity
5009;DHT22;2523;51.058;6.922;2023-07-20T00:01:14;18.60;99.90
5009;DHT22;2523;51.058;6.922;2023-07-20T00:03:40;18.60;99.90
5009;DHT22;2523;51.058;6.922;2023-07-20T00:06:06;18.60;99.90
5009;DHT22;2523;51.058;6.922;2023-07-20T00:08:31;18.60;99.90
5009;DHT22;2523;51.058;6.922;2023-07-20T00:10:57;18.60;99.90
5009;DHT22;2523;51.058;6.922;2023-07-20T00:13:22;18.60;99.90
5009;DHT22;2523;51.058;6.922;2023-07-20T00:15:48;18.60;99.90
5009;DHT22;2523;51.058;6.922;2023-07-20T00:18:14;18.60;99.90
5009;DHT22;2523;51.058;6.922;2023-07-20T00:20:40;18.60;99.90
5009;DHT22;2523;51.058;6.922;2023-07-20T00:23:06;18.50;99.90
5009;DHT22;2523;51.058;6.922;2023-07-20T00:25:32;18.40;99.90
5009;DHT22;2523;51.058;6.922;2023-07-20T00:27:57;18.40;99.90
5009;DHT22;2523;51.058;6.922;2023-07-20T00:30:23;18.30;99.90
5009;DHT22;2523;51.058;6.922;2023-07-20T00:32:48;18.30;99.90
5009;DHT22;2523;51.058;6.922;2023-07-20T00:35:14;18.30;99.90
5009;DHT22;2523;51.058;6.922;2023-07-20T00:37:40;18.20;99.90
5009;DHT22;2523;51.058;6.922;2023-07-20T00:40:06;18.20;99.90
5009;DHT22;2523;51.058;6.922;2023-07-20T00:42:35;18.20;99.90
5009;DHT22;2523;51.058;6.922;2023-07-20T00:45:00;18.10;99.90
5009;DHT22;2523;51.058;6.922;2023-07-20T00:47:27;18.20;99.90
5009;DHT22;2523;51.058;6.922;2023-07-20T00:49:53;18.30;99.90
5009;DHT22;2523;51.058;6.922;2023-07-20T00:52:21;18.30;99.90
5009;DHT22;2523;51.058;6.922;2023-07-20T00:54:48;18.30;99.90
5009;DHT22;2523;51.058;6.922;2023-07-20T00:57:15;18.20;99.90
5009;DHT22;2523;51.058;6.922;2023-07-20T00:59:41;18.20;99.90
5009;DHT22;2523;51.058;6.922;2023-07-20T01:02:07;18.10;99.90
5009;DHT22;2523;51.058;6.922;2023-07-20T01:04:33;18.10;99.90
5009;DHT22;2523;51.058;6.922;2023-07-20T01:12:46;18.00;99.90
5009;DHT22;2523;51.058;6.922;2023-07-20T01:15:12;18.10;99.90
5009;DHT22;2523;51.058;6.922;2023-07-20T01:17:38;18.00;99.90
5009;DHT22;2523;51.058;6.922;2023-07-20T01:20:04;18.00;99.90
5009;DHT22;2523;51.058;6.922;2023-07-20T01:29:09;18.00;99.90
5009;DHT22;2523;51.058;6.922;2023-07-20T01:31:32;18.10;99.90
5009;DHT22;2523;51.058;6.922;2023-07-20T01:34:00;18.20;99.90
5009;DHT22;2523;51.058;6.922;2023-07-20T01:36:30;18.20;99.90
5009;DHT22;2523;51.058;6.922;2023-07-20T01:38:56;18.20;99.90
5009;DHT22;2523;51.058;6.922;2023-07-20T01:41:23;18.10;99.90
5009;DHT22;2523;51.058;6.922;2023-07-20T01:43:48;18.20;99.90
5009;DHT22;2523;51.058;6.922;2023-07-20T01:46:14;18.30;99.90
5009;DHT22;2523;51.058;6.922;2023-07-20T01:48:40;18.30;99.90
5009;DHT22;2523;51.058;6.922;2023-07-20T01:51:05;18.30;99.90
5009;DHT22;2523;51.058;6.922;2023-07-20T01:53:31;18.30;99.90
5009;DHT22;2523;51.058;6.922;2023-07-20T01:55:57;18.30;99.90
5009;DHT22;2523;51.058;6.922;2023-07-20T01:58:22;18.30;99.90
5009;DHT22;2523;51.058;6.922;2023-07-20T02:00:48;18.30;99.90
5009;DHT22;2523;51.058;6.922;2023-07-20T02:03:13;18.30;99.90
5009;DHT22;2523;51.058;6.922;2023-07-20T02:05:39;18.20;99.90
5009;DHT22;2523;51.058;6.922;2023-07-20T02:08:05;18.20;99.90
5009;DHT22;2523;51.058;6.922;2023-07-20T02:10:30;18.20;99.90
5009;DHT22;2523;51.058;6.922;2023-07-20T02:12:56;18.10;99.90
5009;DHT22;2523;51.058;6.922;2023-07-20T02:15:22;18.00;99.90
5009;DHT22;2523;51.058;6.922;2023-07-20T02:17:47;18.00;99.90
5009;DHT22;2523;51.058;6.922;2023-07-20T02:20:13;17.90;99.90
5009;DHT22;2523;51.058;6.922;2023-07-20T02:22:39;17.80;99.90
5009;DHT22;2523;51.058;6.922;2023-07-20T02:25:06;17.70;99.90
5009;DHT22;2523;51.058;6.922;2023-07-20T02:27:35;17.70;99.90
5009;DHT22;2523;51.058;6.922;2023-07-20T02:30:01;17.70;99.90
5009;DHT22;2523;51.058;6.922;2023-07-20T02:32:28;17.60;99.90
5009;DHT22;2523;51.058;6.922;2023-07-20T02:34:53;17.60;99.90
5009;DHT22;2523;51.058;6.922;2023-07-20T02:37:19;17.60;99.90
5009;DHT22;2523;51.058;6.922;2023-07-20T02:39:44;17.50;99.90
5009;DHT22;2523;51.058;6.922;2023-07-20T02:42:10;17.50;99.90
5009;DHT22;2523;51.058;6.922;2023-07-20T02:44:36;17.50;99.90
5009;DHT22;2523;51.058;6.922;2023-07-20T02:47:01;17.50;99.90
5009;DHT22;2523;51.058;6.922;2023-07-20T02:49:27;17.50;99.90
5009;DHT22;2523;51.058;6.922;2023-07-20T02:51:53;17.50;99.90
5009;DHT22;2523;51.058;6.922;2023-07-20T02:54:19;17.60;99.90
5009;DHT22;2523;51.058;6.922;2023-07-20T02:56:45;17.70;99.90
5009;DHT22;2523;51.058;6.922;2023-07-20T02:59:10;17.60;99.90
5009;DHT22;2523;51.058;6.922;2023-07-20T03:01:36;17.60;99.90
5009;DHT22;2523;51.058;6.922;2023-07-20T03:04:02;17.50;99.90
5009;DHT22;2523;51.058;6.922;2023-07-20T03:06:28;17.60;99.90
5009;DHT22;2523;51.058;6.922;2023-07-20T03:08:53;17.60;99.90
5009;DHT22;2523;51.058;6.922;2023-07-20T03:11:20;17.60;99.90
5009;DHT22;2523;51.058;6.922;2023-07-20T03:13:46;17.70;99.90
5009;DHT22;2523;51.058;6.922;2023-07-20T03:16:17;17.70;99.90
5009;DHT22;2523;51.058;6.922;2023-07-20T03:18:43;17.70;99.90
5009;DHT22;2523;51.058;6.922;2023-07-20T03:21:09;17.70;99.90
5009;DHT22;2523;51.058;6.922;2023-07-20T03:23:37;17.70;99.90
5009;DHT22;2523;51.058;6.922;2023-07-20T03:26:02;17.70;99.90
5009;DHT22;2523;51.058;6.922;2023-07-20T03:28:28;17.60;99.90
5009;DHT22;2523;51.058;6.922;2023-07-20T03:30:54;17.70;99.90
5009;DHT22;2523;51.058;6.922;2023-07-20T03:33:27;17.70;99.90
5009;DHT22;2523;51.058;6.922;2023-07-20T03:35:53;17.60;99.90
5009;DHT22;2523;51.058;6.922;2023-07-20T03:38:20;17.60;99.90
5009;DHT22;2523;51.058;6.922;2023-07-20T03:40:52;17.70;99.90
5009;DHT22;2523;51.058;6.922;2023-07-20T03:43:18;17.70;99.90
5009;DHT22;2523;51.058;6.922;2023-07-20T03:45:44;17.80;99.90
5009;DHT22;2523;51.058;6.922;2023-07-20T03:48:11;17.80;99.90
5009;DHT22;2523;51.058;6.922;2023-07-20T03:50:37;17.80;99.90
5009;DHT22;2523;51.058;6.922;2023-07-20T03:53:03;17.70;99.90
5009;DHT22;2523;51.058;6.922;2023-07-20T03:55:28;17.70;99.90
5009;DHT22;2523;51.058;6.922;2023-07-20T03:57:54;17.80;99.90
5009;DHT22;2523;51.058;6.922;2023-07-20T04:00:19;17.70;99.90
5009;DHT22;2523;51.058;6.922;2023-07-20T04:02:45;17.60;99.90
5009;DHT22;2523;51.058;6.922;2023-07-20T04:05:11;17.70;99.90
5009;DHT22;2523;51.058;6.922;2023-07-20T04:07:36;17.60;99.90
5009;DHT22;2523;51.058;6.922;2023-07-20T04:10:02;17.60;99.90
5009;DHT22;2523;51.058;6.922;2023-07-20T04:12:28;17.60;99.90
5009;DHT22;2523;51.058;6.922;2023-07-20T04:14:53;17.60;99.90
5009;DHT22;2523;51.058;6.922;2023-07-20T04:17:19;17.60;99.90
5009;DHT22;2523;51.058;6.922;2023-07-20T04:19:44;17.70;99.90
5009;DHT22;2523;51.058;6.922;2023-07-20T04:22:10;17.70;99.90
5009;DHT22;2523;51.058;6.922;2023-07-20T04:24:35;17.80;99.90
5009;DHT22;2523;51.058;6.922;2023-07-20T04:27:01;17.80;99.90
5009;DHT22;2523;51.058;6.922;2023-07-20T04:29:27;17.80;99.90
5009;DHT22;2523;51.058;6.922;2023-07-20T04:31:52;17.80;99.90
5009;DHT22;2523;51.058;6.922;2023-07-20T04:34:18;17.80;99.90
5009;DHT22;2523;51.058;6.922;2023-07-20T04:36:43;17.80;99.90
5009;DHT22;2523;51.058;6.922;2023-07-20T04:39:10;17.80;99.90
5009;DHT22;2523;51.058;6.922;2023-07-20T04:41:35;17.80;99.90
5009;DHT22;2523;51.058;6.922;2023-07-20T04:44:01;17.80;99.90
5009;DHT22;2523;51.058;6.922;2023-07-20T04:46:26;17.90;99.90
5009;DHT22;2523;51.058;6.922;2023-07-20T04:48:52;17.90;99.90
5009;DHT22;2523;51.058;6.922;2023-07-20T04:51:17;17.90;99.90
5009;DHT22;2523;51.058;6.922;2023-07-20T04:53:48;17.90;99.90
5009;DHT22;2523;51.058;6.922;2023-07-20T04:56:14;18.00;99.90
5009;DHT22;2523;51.058;6.922;2023-07-20T04:58:40;18.10;99.90
5009;DHT22;2523;51.058;6.922;2023-07-20T05:01:05;18.10;99.90
5009;DHT22;2523;51.058;6.922;2023-07-20T05:03:31;18.20;99.90
5009;DHT22;2523;51.058;6.922;2023-07-20T05:05:57;18.20;99.90
5009;DHT22;2523;51.058;6.922;2023-07-20T05:08:22;18.20;99.90
5009;DHT22;2523;51.058;6.922;2023-07-20T05:10:48;18.10;99.90
5009;DHT22;2523;51.058;6.922;2023-07-20T05:13:14;18.00;99.90
5009;DHT22;2523;51.058;6.922;2023-07-20T05:15:39;18.00;99.90
5009;DHT22;2523;51.058;6.922;2023-07-20T05:18:05;18.00;99.90
5009;DHT22;2523;51.058;6.922;2023-07-20T05:20:31;18.00;99.90
5009;DHT22;2523;51.058;6.922;2023-07-20T05:22:58;18.10;99.90
5009;DHT22;2523;51.058;6.922;2023-07-20T05:25:24;18.20;99.90
5009;DHT22;2523;51.058;6.922;2023-07-20T05:27:50;18.20;99.90
5009;DHT22;2523;51.058;6.922;2023-07-20T05:30:16;18.10;99.90
5009;DHT22;2523;51.058;6.922;2023-07-20T05:32:41;18.00;99.90
5009;DHT22;2523;51.058;6.922;2023-07-20T05:35:07;18.20;99.90
5009;DHT22;2523;51.058;6.922;2023-07-20T05:37:34;18.10;99.90
5009;DHT22;2523;51.058;6.922;2023-07-20T05:39:59;18.10;99.90
5009;DHT22;2523;51.058;6.922;2023-07-20T05:42:25;18.10;99.90
5009;DHT22;2523;51.058;6.922;2023-07-20T05:44:50;18.20;99.90
5009;DHT22;2523;51.058;6.922;2023-07-20T05:47:18;18.20;99.90
5009;DHT22;2523;51.058;6.922;2023-07-20T05:49:43;18.20;99.90
5009;DHT22;2523;51.058;6.922;2023-07-20T05:52:09;18.20;99.90
5009;DHT22;2523;51.058;6.922;2023-07-20T05:54:34;18.30;99.90
5009;DHT22;2523;51.058;6.922;2023-07-20T05:57:00;18.20;99.90
5009;DHT22;2523;51.058;6.922;2023-07-20T05:59:27;18.30;99.90
5009;DHT22;2523;51.058;6.922;2023-07-20T06:01:55;18.30;99.90
5009;DHT22;2523;51.058;6.922;2023-07-20T06:04:20;18.40;99.90
5009;DHT22;2523;51.058;6.922;2023-07-20T06:06:46;18.50;99.90
5009;DHT22;2523;51.058;6.922;2023-07-20T06:09:11;18.60;99.90
5009;DHT22;2523;51.058;6.922;2023-07-20T06:11:38;18.60;99.90
5009;DHT22;2523;51.058;6.922;2023-07-20T06:14:04;18.60;99.90
5009;DHT22;2523;51.058;6.922;2023-07-20T06:16:29;18.60;99.90
5009;DHT22;2523;51.058;6.922;2023-07-20T06:18:55;18.60;99.90
5009;DHT22;2523;51.058;6.922;2023-07-20T06:21:21;18.60;99.90
5009;DHT22;2523;51.058;6.922;2023-07-20T06:23:47;18.70;99.90
5009;DHT22;2523;51.058;6.922;2023-07-20T06:26:12;18.70;99.90
5009;DHT22;2523;51.058;6.922;2023-07-20T06:28:38;18.80;99.90
5009;DHT22;2523;51.058;6.922;2023-07-20T06:31:03;18.90;99.90
5009;DHT22;2523;51.058;6.922;2023-07-20T06:33:29;18.90;99.90
5009;DHT22;2523;51.058;6.922;2023-07-20T06:35:55;19.00;99.90
5009;DHT22;2523;51.058;6.922;2023-07-20T06:38:22;18.90;99.90
5009;DHT22;2523;51.058;6.922;2023-07-20T06:40:49;18.90;99.90
5009;DHT22;2523;51.058;6.922;2023-07-20T06:43:15;19.00;99.90
5009;DHT22;2523;51.058;6.922;2023-07-20T06:45:41;19.10;99.90
5009;DHT22;2523;51.058;6.922;2023-07-20T06:48:07;19.10;99.90
5009;DHT22;2523;51.058;6.922;2023-07-20T06:50:32;19.20;99.90
5009;DHT22;2523;51.058;6.922;2023-07-20T06:52:58;19.20;99.90
5009;DHT22;2523;51.058;6.922;2023-07-20T06:55:25;19.20;99.90
5009;DHT22;2523;51.058;6.922;2023-07-20T06:57:51;19.20;99.90
5009;DHT22;2523;51.058;6.922;2023-07-20T07:00:17;19.20;99.90
5009;DHT22;2523;51.058;6.922;2023-07-20T07:02:43;19.30;99.90
5009;DHT22;2523;51.058;6.922;2023-07-20T07:05:09;19.40;99.90
5009;DHT22;2523;51.058;6.922;2023-07-20T07:07:34;19.50;99.90
5009;DHT22;2523;51.058;6.922;2023-07-20T07:10:01;19.60;99.90
5009;DHT22;2523;51.058;6.922;2023-07-20T07:12:30;19.60;99.90
5009;DHT22;2523;51.058;6.922;2023-07-20T07:14:55;19.60;99.90
5009;DHT22;2523;51.058;6.922;2023-07-20T07:17:21;19.60;99.90
5009;DHT22;2523;51.058;6.922;2023-07-20T07:19:46;19.70;99.90
5009;DHT22;2523;51.058;6.922;2023-07-20T07:22:12;19.60;99.90
5009;DHT22;2523;51.058;6.922;2023-07-20T07:24:38;19.50;99.90
5009;DHT22;2523;51.058;6.922;2023-07-20T07:27:05;19.60;99.90
5009;DHT22;2523;51.058;6.922;2023-07-20T07:29:31;19.50;99.90
5009;DHT22;2523;51.058;6.922;2023-07-20T07:31:56;19.50;99.90
5009;DHT22;2523;51.058;6.922;2023-07-20T07:34:23;19.40;99.90
5009;DHT22;2523;51.058;6.922;2023-07-20T07:36:48;19.30;99.90
5009;DHT22;2523;51.058;6.922;2023-07-20T07:39:14;19.30;99.90
5009;DHT22;2523;51.058;6.922;2023-07-20T07:41:40;19.40;99.90
5009;DHT22;2523;51.058;6.922;2023-07-20T07:44:05;19.60;99.90
5009;DHT22;2523;51.058;6.922;2023-07-20T07:46:31;19.70;99.90
5009;DHT22;2523;51.058;6.922;2023-07-20T07:48:57;19.70;99.90
5009;DHT22;2523;51.058;6.922;2023-07-20T07:51:22;19.90;99.90
5009;DHT22;2523;51.058;6.922;2023-07-20T07:53:48;20.00;99.90
5009;DHT22;2523;51.058;6.922;2023-07-20T07:56:14;20.10;99.90
5009;DHT22;2523;51.058;6.922;2023-07-20T07:58:40;20.10;99.90
5009;DHT22;2523;51.058;6.922;2023-07-20T08:01:06;19.90;99.90
5009;DHT22;2523;51.058;6.922;2023-07-20T08:03:31;19.70;99.90
5009;DHT22;2523;51.058;6.922;2023-07-20T08:05:57;19.50;99.90
5009;DHT22;2523;51.058;6.922;2023-07-20T08:08:24;19.40;99.90
5009;DHT22;2523;51.058;6.922;2023-07-20T08:10:52;19.40;99.90
5009;DHT22;2523;51.058;6.922;2023-07-20T08:13:18;19.60;99.90
5009;DHT22;2523;51.058;6.922;2023-07-20T08:15:50;19.90;99.90
5009;DHT22;2523;51.058;6.922;2023-07-20T08:18:19;20.10;99.90
5009;DHT22;2523;51.058;6.922;2023-07-20T08:20:45;20.40;99.90
5009;DHT22;2523;51.058;6.922;2023-07-20T08:23:11;20.60;99.90
5009;DHT22;2523;51.058;6.922;2023-07-20T08:25:37;20.60;99.90
5009;DHT22;2523;51.058;6.922;2023-07-20T08:28:05;20.60;99.90
5009;DHT22;2523;51.058;6.922;2023-07-20T08:30:43;20.40;99.90
5009;DHT22;2523;51.058;6.922;2023-07-20T08:33:13;20.30;99.90
5009;DHT22;2523;51.058;6.922;2023-07-20T08:35:39;20.50;99.90
5009;DHT22;2523;51.058;6.922;2023-07-20T08:38:05;20.70;99.90
5009;DHT22;2523;51.058;6.922;2023-07-20T08:40:42;20.80;99.90
5009;DHT22;2523;51.058;6.922;2023-07-20T08:43:11;21.00;99.90
5009;DHT22;2523;51.058;6.922;2023-07-20T08:45:39;21.20;99.90
5009;DHT22;2523;51.058;6.922;2023-07-20T08:48:06;21.50;99.90
5009;DHT22;2523;51.058;6.922;2023-07-20T08:50:32;21.60;99.90
5009;DHT22;2523;51.058;6.922;2023-07-20T08:52:59;21.70;99.90
5009;DHT22;2523;51.058;6.922;2023-07-20T08:55:28;21.60;99.90
5009;DHT22;2523;51.058;6.922;2023-07-20T08:57:55;21.60;99.90
5009;DHT22;2523;51.058;6.922;2023-07-20T09:00:22;21.40;99.90
5009;DHT22;2523;51.058;6.922;2023-07-20T09:02:51;21.30;99.90
5009;DHT22;2523;51.058;6.922;2023-07-20T09:05:17;21.30;99.90
5009;DHT22;2523;51.058;6.922;2023-07-20T09:07:43;21.30;99.90
5009;DHT22;2523;51.058;6.922;2023-07-20T09:10:09;21.40;99.90
5009;DHT22;2523;51.058;6.922;2023-07-20T09:12:39;21.30;99.90
5009;DHT22;2523;51.058;6.922;2023-07-20T09:15:07;21.20;99.90
5009;DHT22;2523;51.058;6.922;2023-07-20T09:17:33;21.30;99.90
5009;DHT22;2523;51.058;6.922;2023-07-20T09:20:02;21.30;99.90
5009;DHT22;2523;51.058;6.922;2023-07-20T09:22:31;21.30;99.90
5009;DHT22;2523;51.058;6.922;2023-07-20T09:24:58;21.40;99.90
5009;DHT22;2523;51.058;6.922;2023-07-20T09:27:38;21.60;99.90
5009;DHT22;2523;51.058;6.922;2023-07-20T09:30:04;21.60;99.90
5009;DHT22;2523;51.058;6.922;2023-07-20T09:32:38;21.60;99.90
5009;DHT22;2523;51.058;6.922;2023-07-20T09:35:05;21.50;99.90
5009;DHT22;2523;51.058;6.922;2023-07-20T09:37:33;21.60;99.90
5009;DHT22;2523;51.058;6.922;2023-07-20T09:39:59;21.80;99.90
5009;DHT22;2523;51.058;6.922;2023-07-20T09:42:25;22.00;99.90
5009;DHT22;2523;51.058;6.922;2023-07-20T09:44:52;22.00;99.90
5009;DHT22;2523;51.058;6.922;2023-07-20T09:47:24;22.10;99.90
5009;DHT22;2523;51.058;6.922;2023-07-20T09:49:54;22.40;99.90
5009;DHT22;2523;51.058;6.922;2023-07-20T09:52:20;22.80;99.90
5009;DHT22;2523;51.058;6.922;2023-07-20T09:54:46;23.00;99.90
5009;DHT22;2523;51.058;6.922;2023-07-20T09:57:12;23.10;99.90
5009;DHT22;2523;51.058;6.922;2023-07-20T09:59:39;23.50;99.90
5009;DHT22;2523;51.058;6.922;2023-07-20T10:02:10;23.70;99.90
5009;DHT22;2523;51.058;6.922;2023-07-20T10:04:37;23.50;99.90
5009;DHT22;2523;51.058;6.922;2023-07-20T10:07:05;23.40;99.90
5009;DHT22;2523;51.058;6.922;2023-07-20T10:09:35;23.20;97.10
5009;DHT22;2523;51.058;6.922;2023-07-20T10:12:04;23.00;94.70
5009;DHT22;2523;51.058;6.922;2023-07-20T10:14:31;22.80;99.90
5009;DHT22;2523;51.058;6.922;2023-07-20T10:17:01;22.60;99.90
5009;DHT22;2523;51.058;6.922;2023-07-20T10:19:46;22.40;99.90
5009;DHT22;2523;51.058;6.922;2023-07-20T10:22:14;22.30;99.90
5009;DHT22;2523;51.058;6.922;2023-07-20T10:24:46;22.00;99.90
5009;DHT22;2523;51.058;6.922;2023-07-20T10:27:13;22.20;99.90
5009;DHT22;2523;51.058;6.922;2023-07-20T10:29:40;22.40;99.90
5009;DHT22;2523;51.058;6.922;2023-07-20T10:32:08;22.50;99.90
5009;DHT22;2523;51.058;6.922;2023-07-20T10:34:34;22.60;99.90
5009;DHT22;2523;51.058;6.922;2023-07-20T10:36:59;22.70;98.50
5009;DHT22;2523;51.058;6.922;2023-07-20T10:39:26;22.90;70.90
5009;DHT22;2523;51.058;6.922;2023-07-20T10:42:09;22.90;47.10
5009;DHT22;2523;51.058;6.922;2023-07-20T10:44:39;22.90;73.00
5009;DHT22;2523;51.058;6.922;2023-07-20T10:47:09;22.90;64.30
5009;DHT22;2523;51.058;6.922;2023-07-20T10:49:35;22.80;88.30
5009;DHT22;2523;51.058;6.922;2023-07-20T10:52:21;22.80;72.80
5009;DHT22;2523;51.058;6.922;2023-07-20T10:54:47;23.20;80.00
5009;DHT22;2523;51.058;6.922;2023-07-20T10:57:30;23.80;79.40
5009;DHT22;2523;51.058;6.922;2023-07-20T11:00:15;24.10;40.40
5009;DHT22;2523;51.058;6.922;2023-07-20T11:02:46;24.30;43.60
5009;DHT22;2523;51.058;6.922;2023-07-20T11:05:35;24.10;31.20
5009;DHT22;2523;51.058;6.922;2023-07-20T11:08:03;24.00;28.40
5009;DHT22;2523;51.058;6.922;2023-07-20T11:10:29;24.00;31.00
5009;DHT22;2523;51.058;6.922;2023-07-20T11:13:20;24.10;29.20
5009;DHT22;2523;51.058;6.922;2023-07-20T11:18:27;23.90;30.80
5009;DHT22;2523;51.058;6.922;2023-07-20T11:20:53;23.90;35.90
5009;DHT22;2523;51.058;6.922;2023-07-20T11:23:22;23.80;35.30
5009;DHT22;2523;51.058;6.922;2023-07-20T11:25:49;23.90;31.80
5009;DHT22;2523;51.058;6.922;2023-07-20T11:28:15;24.20;38.00
5009;DHT22;2523;51.058;6.922;2023-07-20T11:30:41;24.70;35.30
5009;DHT22;2523;51.058;6.922;2023-07-20T11:33:10;25.30;31.00
5009;DHT22;2523;51.058;6.922;2023-07-20T11:35:41;25.80;29.00
5009;DHT22;2523;51.058;6.922;2023-07-20T11:38:07;25.80;22.70
5009;DHT22;2523;51.058;6.922;2023-07-20T11:40:33;25.30;21.70
5009;DHT22;2523;51.058;6.922;2023-07-20T11:42:59;25.20;24.70
5009;DHT22;2523;51.058;6.922;2023-07-20T11:45:25;24.80;26.30
5009;DHT22;2523;51.058;6.922;2023-07-20T11:47:50;24.50;28.00
5009;DHT22;2523;51.058;6.922;2023-07-20T11:50:16;24.30;26.80
5009;DHT22;2523;51.058;6.922;2023-07-20T11:52:42;23.90;26.10
5009;DHT22;2523;51.058;6.922;2023-07-20T11:55:08;23.80;27.40
5009;DHT22;2523;51.058;6.922;2023-07-20T11:57:33;23.60;27.20
5009;DHT22;2523;51.058;6.922;2023-07-20T12:00:03;23.50;28.20
5009;DHT22;2523;51.058;6.922;2023-07-20T12:02:37;23.30;31.70
5009;DHT22;2523;51.058;6.922;2023-07-20T12:05:05;23.30;34.20
5009;DHT22;2523;51.058;6.922;2023-07-20T12:07:35;23.40;33.30
5009;DHT22;2523;51.058;6.922;2023-07-20T12:10:11;23.70;33.80
5009;DHT22;2523;51.058;6.922;2023-07-20T12:12:40;23.60;27.80
5009;DHT22;2523;51.058;6.922;2023-07-20T12:15:17;23.50;32.60
5009;DHT22;2523;51.058;6.922;2023-07-20T12:17:46;23.40;33.30
5009;DHT22;2523;51.058;6.922;2023-07-20T12:20:25;23.40;28.40
5009;DHT22;2523;51.058;6.922;2023-07-20T12:22:51;23.20;29.00
5009;DHT22;2523;51.058;6.922;2023-07-20T12:25:16;23.10;33.80
5009;DHT22;2523;51.058;6.922;2023-07-20T12:27:44;22.80;32.90
5009;DHT22;2523;51.058;6.922;2023-07-20T12:30:10;22.80;35.00
5009;DHT22;2523;51.058;6.922;2023-07-20T12:32:35;22.80;35.90
5009;DHT22;2523;51.058;6.922;2023-07-20T12:35:02;22.90;34.00
5009;DHT22;2523;51.058;6.922;2023-07-20T12:37:27;23.00;44.10
5009;DHT22;2523;51.058;6.922;2023-07-20T12:39:53;23.20;45.50
5009;DHT22;2523;51.058;6.922;2023-07-20T12:42:19;23.60;36.60
5009;DHT22;2523;51.058;6.922;2023-07-20T12:44:44;23.80;28.40
5009;DHT22;2523;51.058;6.922;2023-07-20T12:47:10;24.10;30.50
5009;DHT22;2523;51.058;6.922;2023-07-20T12:49:36;24.10;27.90
5009;DHT22;2523;51.058;6.922;2023-07-20T12:52:01;24.20;29.50
5009;DHT22;2523;51.058;6.922;2023-07-20T12:54:27;24.20;26.90
5009;DHT22;2523;51.058;6.922;2023-07-20T12:56:52;24.10;27.50
5009;DHT22;2523;51.058;6.922;2023-07-20T12:59:18;24.10;27.90
5009;DHT22;2523;51.058;6.922;2023-07-20T13:01:44;23.90;27.80
5009;DHT22;2523;51.058;6.922;2023-07-20T13:04:09;23.70;36.80
5009;DHT22;2523;51.058;6.922;2023-07-20T13:06:35;23.40;33.80
5009;DHT22;2523;51.058;6.922;2023-07-20T13:09:01;23.20;30.80
5009;DHT22;2523;51.058;6.922;2023-07-20T13:11:27;23.10;31.00
5009;DHT22;2523;51.058;6.922;2023-07-20T13:13:53;23.00;40.30
5009;DHT22;2523;51.058;6.922;2023-07-20T13:16:18;23.00;37.30
5009;DHT22;2523;51.058;6.922;2023-07-20T13:18:44;23.00;40.50
5009;DHT22;2523;51.058;6.922;2023-07-20T13:21:09;23.10;49.40
5009;DHT22;2523;51.058;6.922;2023-07-20T13:23:39;23.30;52.30
5009;DHT22;2523;51.058;6.922;2023-07-20T13:26:05;23.40;47.30
5009;DHT22;2523;51.058;6.922;2023-07-20T13:28:31;23.50;33.50
5009;DHT22;2523;51.058;6.922;2023-07-20T13:30:56;23.70;30.90
5009;DHT22;2523;51.058;6.922;2023-07-20T13:33:22;23.70;36.80
5009;DHT22;2523;51.058;6.922;2023-07-20T13:35:47;23.70;36.80
5009;DHT22;2523;51.058;6.922;2023-07-20T13:38:13;23.60;41.20
5009;DHT22;2523;51.058;6.922;2023-07-20T13:40:39;23.60;38.40
5009;DHT22;2523;51.058;6.922;2023-07-20T13:43:04;23.60;38.50
5009;DHT22;2523;51.058;6.922;2023-07-20T13:45:30;23.50;41.00
5009;DHT22;2523;51.058;6.922;2023-07-20T13:47:55;23.40;42.30
5009;DHT22;2523;51.058;6.922;2023-07-20T13:50:21;23.50;41.70
5009;DHT22;2523;51.058;6.922;2023-07-20T13:52:47;23.50;39.40
5009;DHT22;2523;51.058;6.922;2023-07-20T13:55:12;23.70;40.60
5009;DHT22;2523;51.058;6.922;2023-07-20T13:57:38;23.80;29.70
5009;DHT22;2523;51.058;6.922;2023-07-20T14:00:04;24.10;27.60
5009;DHT22;2523;51.058;6.922;2023-07-20T14:02:32;24.20;29.20
5009;DHT22;2523;51.058;6.922;2023-07-20T14:04:58;24.30;25.50
5009;DHT22;2523;51.058;6.922;2023-07-20T14:07:23;24.20;29.10
5009;DHT22;2523;51.058;6.922;2023-07-20T14:09:49;24.20;28.80
5009;DHT22;2523;51.058;6.922;2023-07-20T14:12:15;24.70;27.30
5009;DHT22;2523;51.058;6.922;2023-07-20T14:14:40;25.10;26.40
5009;DHT22;2523;51.058;6.922;2023-07-20T14:17:06;25.40;22.40
5009;DHT22;2523;51.058;6.922;2023-07-20T14:19:32;25.60;21.30
5009;DHT22;2523;51.058;6.922;2023-07-20T14:21:58;26.00;21.20
5009;DHT22;2523;51.058;6.922;2023-07-20T14:24:25;26.10;18.00
5009;DHT22;2523;51.058;6.922;2023-07-20T14:26:51;26.30;17.10
5009;DHT22;2523;51.058;6.922;2023-07-20T14:29:16;26.10;15.20
5009;DHT22;2523;51.058;6.922;2023-07-20T14:31:44;25.70;16.10
5009;DHT22;2523;51.058;6.922;2023-07-20T14:34:10;25.10;18.30
5009;DHT22;2523;51.058;6.922;2023-07-20T14:36:35;24.90;19.80
5009;DHT22;2523;51.058;6.922;2023-07-20T14:39:01;25.10;20.40
5009;DHT22;2523;51.058;6.922;2023-07-20T14:41:26;25.20;23.00
5009;DHT22;2523;51.058;6.922;2023-07-20T14:43:52;25.10;21.70
5009;DHT22;2523;51.058;6.922;2023-07-20T14:46:17;25.00;21.00
5009;DHT22;2523;51.058;6.922;2023-07-20T14:48:43;24.60;19.80
5009;DHT22;2523;51.058;6.922;2023-07-20T14:51:08;24.60;20.10
5009;DHT22;2523;51.058;6.922;2023-07-20T14:53:34;24.50;20.40
5009;DHT22;2523;51.058;6.922;2023-07-20T14:56:01;24.40;20.20
5009;DHT22;2523;51.058;6.922;2023-07-20T14:58:27;24.50;20.50
5009;DHT22;2523;51.058;6.922;2023-07-20T15:00:52;24.60;20.00
5009;DHT22;2523;51.058;6.922;2023-07-20T15:03:18;24.80;19.40
5009;DHT22;2523;51.058;6.922;2023-07-20T15:05:43;24.60;17.90
5009;DHT22;2523;51.058;6.922;2023-07-20T15:08:09;24.70;19.60
5009;DHT22;2523;51.058;6.922;2023-07-20T15:10:35;24.50;18.40
5009;DHT22;2523;51.058;6.922;2023-07-20T15:13:00;24.60;18.90
5009;DHT22;2523;51.058;6.922;2023-07-20T15:15:26;24.60;18.50
5009;DHT22;2523;51.058;6.922;2023-07-20T15:17:52;24.70;18.90
5009;DHT22;2523;51.058;6.922;2023-07-20T15:20:18;24.70;18.30
5009;DHT22;2523;51.058;6.922;2023-07-20T15:22:43;24.60;18.30
5009;DHT22;2523;51.058;6.922;2023-07-20T15:25:10;24.50;17.70
5009;DHT22;2523;51.058;6.922;2023-07-20T15:27:39;24.20;18.60
5009;DHT22;2523;51.058;6.922;2023-07-20T15:30:06;24.00;19.20
5009;DHT22;2523;51.058;6.922;2023-07-20T15:32:32;24.10;19.90
5009;DHT22;2523;51.058;6.922;2023-07-20T15:34:58;24.20;20.30
5009;DHT22;2523;51.058;6.922;2023-07-20T15:37:23;24.20;19.80
5009;DHT22;2523;51.058;6.922;2023-07-20T15:39:49;24.20;19.20
5009;DHT22;2523;51.058;6.922;2023-07-20T15:42:15;24.20;19.90
5009;DHT22;2523;51.058;6.922;2023-07-20T15:44:41;24.10;19.90
5009;DHT22;2523;51.058;6.922;2023-07-20T15:47:07;24.10;20.20
5009;DHT22;2523;51.058;6.922;2023-07-20T15:49:32;24.20;21.00
5009;DHT22;2523;51.058;6.922;2023-07-20T15:52:00;24.10;19.50
5009;DHT22;2523;51.058;6.922;2023-07-20T15:54:26;24.10;20.80
5009;DHT22;2523;51.058;6.922;2023-07-20T15:56:52;24.00;20.80
5009;DHT22;2523;51.058;6.922;2023-07-20T15:59:18;24.00;20.50
5009;DHT22;2523;51.058;6.922;2023-07-20T16:01:44;24.00;20.70
5009;DHT22;2523;51.058;6.922;2023-07-20T16:04:12;23.90;18.50
5009;DHT22;2523;51.058;6.922;2023-07-20T16:06:39;23.90;19.10
5009;DHT22;2523;51.058;6.922;2023-07-20T16:09:05;23.90;19.90
5009;DHT22;2523;51.058;6.922;2023-07-20T16:11:32;23.90;19.10
5009;DHT22;2523;51.058;6.922;2023-07-20T16:13:57;23.90;20.10